Time;durP1;ratioP1;P1;durP2;ratioP2;P2;SDS_P1;SDS_P2;PMS_P1;PMS_P2;Temp;Humidity;BMP_temperature;BMP_pressure;BME280_temperature;BME280_humidity;BME280_pressure;Samples;Min_cycle;Max_cycle;Signal;HPM_P1;HPM_P2
2021/11/22 00:00:51;;;;;;;51.67;26.85;;;;;;;;;;4896084;29;20052;-67
2021/11/22 00:03:18;;;;;;;55.03;27.25;;;;;;;;;;4895891;29;20035;-66
2021/11/22 00:05:44;;;;;;;51.78;28.60;;;;;;;;;;4896056;29;20070;-65
2021/11/22 00:08:10;;;;;;;51.95;28.48;;;;;;;;;;4895762;29;20063;-64
2021/11/22 00:10:37;;;;;;;53.25;29.17;;;;;;;;;;4897919;29;20025;-65
2021/11/22 00:13:03;;;;;;;57.13;29.88;;;;;;;;;;4899543;29;20540;-66
2021/11/22 00:15:29;;;;;;;58.30;30.45;;;;;;;;;;4899312;29;20043;-65
2021/11/22 00:17:55;;;;;;;54.97;30.83;;;;;;;;;;4899199;29;20053;-71
2021/11/22 00:20:21;;;;;;;57.58;30.08;;;;;;;;;;4899417;29;20446;-72
2021/11/22 00:22:48;;;;;;;54.35;29.88;;;;;;;;;;4899501;29;20029;-66
2021/11/22 00:25:15;;;;;;;52.05;30.52;;;;;;;;;;4899261;29;20051;-68
2021/11/22 00:27:41;;;;;;;56.17;29.83;;;;;;;;;;4899042;29;20039;-67
2021/11/22 00:30:07;;;;;;;54.65;29.73;;;;;;;;;;4899173;29;20032;-73
2021/11/22 00:32:34;;;;;;;61.78;30.10;;;;;;;;;;4882297;29;20461;-69
2021/11/22 00:35:01;;;;;;;56.33;29.17;;;;;;;;;;4899491;29;20033;-72
2021/11/22 00:37:32;;;;;;;54.08;28.30;;;;;;;;;;4899757;29;20063;-73
2021/11/22 00:40:02;;;;;;;51.05;28.08;;;;;;;;;;4899210;29;20136;-71
2021/11/22 00:42:28;;;;;;;51.63;26.95;;;;;;;;;;4899086;29;20876;-69
2021/11/22 00:44:56;;;;;;;54.97;28.13;;;;;;;;;;4881986;29;20036;-67
2021/11/22 00:47:22;;;;;;;49.47;26.92;;;;;;;;;;4882375;29;20561;-71
2021/11/22 00:49:48;;;;;;;53.85;27.65;;;;;;;;;;4899134;29;20465;-71
2021/11/22 00:52:14;;;;;;;49.50;26.75;;;;;;;;;;4898982;29;20043;-69
2021/11/22 00:54:41;;;;;;;55.53;26.48;;;;;;;;;;4899160;29;20028;-70
2021/11/22 00:57:07;;;;;;;53.38;28.17;;;;;;;;;;4898944;29;20033;-74
2021/11/22 00:59:34;;;;;;;51.85;25.95;;;;;;;;;;4898775;29;20039;-67
2021/11/22 01:02:00;;;;;;;53.15;26.98;;;;;;;;;;4898680;29;20056;-70
2021/11/22 01:04:26;;;;;;;57.78;28.63;;;;;;;;;;4898838;29;20024;-68
2021/11/22 01:06:52;;;;;;;57.60;28.92;;;;;;;;;;4898890;29;20036;-66
2021/11/22 01:09:19;;;;;;;50.63;26.73;;;;;;;;;;4898656;29;20037;-69
2021/11/22 01:11:45;;;;;;;53.28;28.27;;;;;;;;;;4898627;29;20037;-66
2021/11/22 01:14:11;;;;;;;58.42;29.27;;;;;;;;;;4898525;29;20481;-68
2021/11/22 01:16:37;;;;;;;52.05;28.73;;;;;;;;;;4898211;29;20078;-68
2021/11/22 01:19:05;;;;;;;54.78;28.77;;;;;;;;;;4898706;29;20032;-67
2021/11/22 01:21:31;;;;;;;57.10;29.48;;;;;;;;;;4898566;29;20100;-69
2021/11/22 01:23:57;;;;;;;53.13;27.50;;;;;;;;;;4898659;29;20445;-68
2021/11/22 01:26:23;;;;;;;54.20;28.77;;;;;;;;;;4898447;29;20067;-70
2021/11/22 01:28:49;;;;;;;51.03;28.02;;;;;;;;;;4898223;29;20092;-66
2021/11/22 01:31:16;;;;;;;48.67;26.85;;;;;;;;;;4898319;29;20035;-65
2021/11/22 01:33:42;;;;;;;50.13;28.00;;;;;;;;;;4898152;29;20541;-65
2021/11/22 01:36:08;;;;;;;47.72;26.10;;;;;;;;;;4898389;29;20033;-65
2021/11/22 01:38:34;;;;;;;52.35;26.15;;;;;;;;;;4898129;29;20032;-65
2021/11/22 01:41:01;;;;;;;53.75;26.95;;;;;;;;;;4897688;29;20044;-65
2021/11/22 01:43:28;;;;;;;48.83;26.27;;;;;;;;;;4897761;29;20025;-65
2021/11/22 01:45:54;;;;;;;46.70;25.70;;;;;;;;;;4897959;29;20045;-65
2021/11/22 01:48:20;;;;;;;50.88;26.92;;;;;;;;;;4898108;29;20075;-65
2021/11/22 01:50:47;;;;;;;51.08;27.50;;;;;;;;;;4897913;29;20549;-65
2021/11/22 01:53:15;;;;;;;56.55;28.85;;;;;;;;;;4897875;29;20025;-66
2021/11/22 01:55:41;;;;;;;60.28;30.30;;;;;;;;;;4898030;29;20056;-65
2021/11/22 01:58:07;;;;;;;57.97;29.58;;;;;;;;;;4897780;29;20024;-66
2021/11/22 02:00:36;;;;;;;56.00;27.70;;;;;;;;;;4897517;29;20088;-65
2021/11/22 02:03:03;;;;;;;59.55;30.35;;;;;;;;;;4897777;29;20032;-65
2021/11/22 02:05:29;;;;;;;79.45;39.75;;;;;;;;;;4898012;29;20092;-65
2021/11/22 02:07:55;;;;;;;53.97;28.73;;;;;;;;;;4897968;29;20201;-66
2021/11/22 02:10:23;;;;;;;61.85;31.02;;;;;;;;;;4897976;29;20156;-65
2021/11/22 02:12:49;;;;;;;69.15;34.88;;;;;;;;;;4897651;29;20063;-65
2021/11/22 02:15:15;;;;;;;67.18;31.95;;;;;;;;;;4897600;29;20389;-65
2021/11/22 02:17:43;;;;;;;66.22;33.40;;;;;;;;;;4897535;29;20053;-65
2021/11/22 02:20:11;;;;;;;53.80;29.45;;;;;;;;;;4897696;29;20495;-65
2021/11/22 02:22:37;;;;;;;52.30;26.63;;;;;;;;;;4897632;29;20489;-65
2021/11/22 02:25:05;;;;;;;54.45;29.05;;;;;;;;;;4897316;29;20060;-64
2021/11/22 02:27:32;;;;;;;60.55;29.98;;;;;;;;;;4897715;29;20490;-66
2021/11/22 02:29:59;;;;;;;57.97;28.50;;;;;;;;;;4897320;29;20038;-66
2021/11/22 02:32:25;;;;;;;55.70;28.80;;;;;;;;;;4879973;29;20024;-66
2021/11/22 02:34:51;;;;;;;54.38;29.48;;;;;;;;;;4897404;29;20040;-66
2021/11/22 02:37:17;;;;;;;54.85;29.67;;;;;;;;;;4897077;29;20434;-66
2021/11/22 02:39:43;;;;;;;57.83;30.17;;;;;;;;;;4897149;29;20370;-66
2021/11/22 02:42:13;;;;;;;53.35;29.10;;;;;;;;;;4897268;29;20469;-66
2021/11/22 02:44:39;;;;;;;53.95;29.73;;;;;;;;;;4897134;29;20054;-67
2021/11/22 02:47:05;;;;;;;56.65;29.80;;;;;;;;;;4897104;29;20028;-66
2021/11/22 02:49:31;;;;;;;57.25;30.42;;;;;;;;;;4897218;29;20056;-68
2021/11/22 02:51:57;;;;;;;53.95;29.77;;;;;;;;;;4897152;29;20035;-66
2021/11/22 02:54:23;;;;;;;59.88;30.27;;;;;;;;;;4897011;29;20052;-66
2021/11/22 02:56:49;;;;;;;57.90;30.10;;;;;;;;;;4896811;29;20860;-66
2021/11/22 02:59:16;;;;;;;55.20;29.88;;;;;;;;;;4896903;29;20473;-72
2021/11/22 03:01:42;;;;;;;58.10;29.35;;;;;;;;;;4897607;29;20036;-64
2021/11/22 03:04:09;;;;;;;57.78;30.67;;;;;;;;;;4898591;29;20112;-64
2021/11/22 03:06:35;;;;;;;58.53;29.77;;;;;;;;;;4896730;29;20095;-66
2021/11/22 03:09:01;;;;;;;58.78;30.23;;;;;;;;;;4896506;29;20028;-65
2021/11/22 03:11:27;;;;;;;60.08;31.88;;;;;;;;;;4896374;29;20037;-70
2021/11/22 03:13:54;;;;;;;60.45;31.45;;;;;;;;;;4896168;29;20043;-65
2021/11/22 03:16:20;;;;;;;60.75;31.00;;;;;;;;;;4896017;29;20560;-66
2021/11/22 03:18:47;;;;;;;60.47;30.77;;;;;;;;;;4896359;29;20120;-65
2021/11/22 03:21:13;;;;;;;59.53;31.00;;;;;;;;;;4896463;29;20064;-72
2021/11/22 03:23:40;;;;;;;60.65;32.63;;;;;;;;;;4896719;29;20032;-65
2021/11/22 03:26:06;;;;;;;60.30;32.95;;;;;;;;;;4896151;29;20544;-65
2021/11/22 03:28:33;;;;;;;63.47;33.50;;;;;;;;;;4896281;29;20116;-67
2021/11/22 03:30:59;;;;;;;62.17;32.30;;;;;;;;;;4896299;29;20075;-65
2021/11/22 03:33:25;;;;;;;60.63;32.45;;;;;;;;;;4896419;29;20100;-64
2021/11/22 03:35:54;;;;;;;62.90;32.45;;;;;;;;;;4896063;29;20061;-66
2021/11/22 03:38:21;;;;;;;59.75;30.45;;;;;;;;;;4896305;29;20020;-72
2021/11/22 03:40:49;;;;;;;65.40;33.67;;;;;;;;;;4895883;29;20066;-65
2021/11/22 03:43:29;;;;;;;63.60;32.28;;;;;;;;;;4896105;29;20111;-68
2021/11/22 03:45:55;;;;;;;67.30;33.45;;;;;;;;;;4895303;29;20036;-69
2021/11/22 03:48:21;;;;;;;64.80;32.03;;;;;;;;;;4896056;29;20106;-65
2021/11/22 03:50:47;;;;;;;68.93;35.95;;;;;;;;;;4896143;29;20032;-65
2021/11/22 03:53:15;;;;;;;62.28;34.65;;;;;;;;;;4896173;29;20035;-65
2021/11/22 03:55:41;;;;;;;66.15;35.08;;;;;;;;;;4896307;29;20111;-68
2021/11/22 03:58:07;;;;;;;70.95;36.67;;;;;;;;;;4896291;29;20035;-65
2021/11/22 04:00:33;;;;;;;67.63;37.75;;;;;;;;;;4896095;29;20445;-69
2021/11/22 04:02:59;;;;;;;71.68;37.50;;;;;;;;;;4895563;29;20048;-66
2021/11/22 04:05:26;;;;;;;75.82;39.20;;;;;;;;;;4896022;29;20032;-71
2021/11/22 04:07:52;;;;;;;74.57;39.25;;;;;;;;;;4896119;29;20803;-65
2021/11/22 04:10:18;;;;;;;71.80;39.17;;;;;;;;;;4895859;29;20374;-65
2021/11/22 04:12:44;;;;;;;75.30;37.58;;;;;;;;;;4895754;29;20037;-67
2021/11/22 04:15:10;;;;;;;69.80;36.97;;;;;;;;;;4895666;29;20040;-65
2021/11/22 04:17:36;;;;;;;69.63;35.55;;;;;;;;;;4895477;29;20139;-65
2021/11/22 04:20:04;;;;;;;61.63;32.58;;;;;;;;;;4895707;29;20096;-65
2021/11/22 04:22:30;;;;;;;58.17;32.00;;;;;;;;;;4895919;29;20091;-65
2021/11/22 04:24:56;;;;;;;63.05;33.45;;;;;;;;;;4895862;29;20064;-66
2021/11/22 04:27:22;;;;;;;61.80;33.95;;;;;;;;;;4895853;29;20033;-71
2021/11/22 04:29:49;;;;;;;65.53;35.10;;;;;;;;;;4895775;29;20024;-67
2021/11/22 04:32:15;;;;;;;64.30;34.53;;;;;;;;;;4895517;29;20036;-66
2021/11/22 04:34:41;;;;;;;67.97;34.90;;;;;;;;;;4895345;29;20037;-65
2021/11/22 04:37:07;;;;;;;67.45;35.97;;;;;;;;;;4895553;29;20434;-65
2021/11/22 04:39:34;;;;;;;64.95;37.10;;;;;;;;;;4895758;29;20564;-65
2021/11/22 04:42:00;;;;;;;66.28;36.28;;;;;;;;;;4895478;29;20433;-68
2021/11/22 04:44:26;;;;;;;71.18;36.45;;;;;;;;;;4895054;29;20028;-66
2021/11/22 04:46:52;;;;;;;73.07;36.75;;;;;;;;;;4895483;29;20040;-66
2021/11/22 04:49:18;;;;;;;69.80;35.80;;;;;;;;;;4895438;29;20470;-66
2021/11/22 04:51:45;;;;;;;64.15;35.67;;;;;;;;;;4895600;29;20484;-65
2021/11/22 04:54:11;;;;;;;75.60;39.63;;;;;;;;;;4895416;29;20434;-65
2021/11/22 04:56:37;;;;;;;75.45;39.33;;;;;;;;;;4897272;29;20048;-65
2021/11/22 04:59:03;;;;;;;68.85;37.35;;;;;;;;;;4899043;29;20036;-65
2021/11/22 05:01:30;;;;;;;70.28;36.92;;;;;;;;;;4898797;29;20056;-65
2021/11/22 05:03:56;;;;;;;71.50;37.80;;;;;;;;;;4899043;29;20040;-65
2021/11/22 05:06:22;;;;;;;76.53;37.75;;;;;;;;;;4898936;29;20028;-71
2021/11/22 05:08:48;;;;;;;73.65;37.03;;;;;;;;;;4898998;29;20028;-64
2021/11/22 05:11:14;;;;;;;70.63;37.22;;;;;;;;;;4898744;29;20127;-64
2021/11/22 05:13:40;;;;;;;62.33;35.28;;;;;;;;;;4898630;29;20032;-64
2021/11/22 05:16:06;;;;;;;67.45;36.03;;;;;;;;;;4898294;29;20113;-65
2021/11/22 05:18:33;;;;;;;66.00;36.58;;;;;;;;;;4898897;29;20029;-63
2021/11/22 05:20:59;;;;;;;72.68;35.88;;;;;;;;;;4898593;29;20386;-67
2021/11/22 05:23:25;;;;;;;70.80;36.33;;;;;;;;;;4897849;29;20100;-64
2021/11/22 05:25:51;;;;;;;68.43;35.45;;;;;;;;;;4898003;29;20024;-65
2021/11/22 05:28:17;;;;;;;75.00;40.72;;;;;;;;;;4898538;29;20037;-64
2021/11/22 05:30:43;;;;;;;75.05;41.17;;;;;;;;;;4898317;29;20020;-64
2021/11/22 05:33:10;;;;;;;68.82;37.85;;;;;;;;;;4898538;29;20063;-64
2021/11/22 05:35:36;;;;;;;73.78;38.72;;;;;;;;;;4898345;29;20511;-65
2021/11/22 05:38:02;;;;;;;71.00;36.72;;;;;;;;;;4898104;29;20481;-64
2021/11/22 05:40:28;;;;;;;63.83;33.67;;;;;;;;;;4898076;29;20075;-64
2021/11/22 05:42:54;;;;;;;58.28;32.58;;;;;;;;;;4898145;29;20065;-64
2021/11/22 05:45:20;;;;;;;64.75;35.20;;;;;;;;;;4897817;29;20032;-65
2021/11/22 05:47:47;;;;;;;66.15;35.63;;;;;;;;;;4898062;29;20524;-65
2021/11/22 05:50:14;;;;;;;68.25;36.45;;;;;;;;;;4898101;29;20044;-64
2021/11/22 05:52:48;;;;;;;66.22;35.53;;;;;;;;;;4898125;29;20079;-64
2021/11/22 05:55:21;;;;;;;66.75;35.00;;;;;;;;;;4898091;29;20062;-64
2021/11/22 05:57:47;;;;;;;64.53;34.30;;;;;;;;;;4897966;29;20032;-69
2021/11/22 06:00:14;;;;;;;65.03;36.08;;;;;;;;;;4897594;29;20111;-66
2021/11/22 06:02:40;;;;;;;64.53;35.38;;;;;;;;;;4897932;29;20028;-64
2021/11/22 06:05:06;;;;;;;69.40;39.88;;;;;;;;;;4897630;29;20582;-71
2021/11/22 06:07:32;;;;;;;82.35;44.17;;;;;;;;;;4897001;29;20107;-64
2021/11/22 06:09:58;;;;;;;83.47;48.00;;;;;;;;;;4897529;29;20031;-64
2021/11/22 06:12:24;;;;;;;83.35;45.08;;;;;;;;;;4897399;29;20032;-63
2021/11/22 06:14:52;;;;;;;77.45;42.78;;;;;;;;;;4897281;29;20093;-64
2021/11/22 06:17:18;;;;;;;72.28;41.30;;;;;;;;;;4897280;29;20053;-65
2021/11/22 06:19:45;;;;;;;71.88;40.90;;;;;;;;;;4897314;29;20092;-64
2021/11/22 06:22:11;;;;;;;74.82;40.92;;;;;;;;;;4897141;29;20504;-64
2021/11/22 06:24:37;;;;;;;80.40;42.10;;;;;;;;;;4897220;29;20036;-66
2021/11/22 06:27:03;;;;;;;73.40;42.72;;;;;;;;;;4897116;29;20036;-66
2021/11/22 06:29:29;;;;;;;77.15;43.50;;;;;;;;;;4897115;29;20060;-64
2021/11/22 06:31:55;;;;;;;77.43;44.15;;;;;;;;;;4897070;29;20067;-67
2021/11/22 06:34:21;;;;;;;78.25;46.08;;;;;;;;;;4897349;29;20029;-64
2021/11/22 06:36:47;;;;;;;82.70;47.40;;;;;;;;;;4897172;29;20032;-68
2021/11/22 06:39:13;;;;;;;82.10;47.45;;;;;;;;;;4897223;29;20481;-69
2021/11/22 06:41:39;;;;;;;83.00;48.25;;;;;;;;;;4896907;29;20044;-64
2021/11/22 06:44:05;;;;;;;84.45;50.63;;;;;;;;;;4896832;29;20024;-66
2021/11/22 06:46:32;;;;;;;86.55;51.55;;;;;;;;;;4897048;29;20119;-68
2021/11/22 06:48:58;;;;;;;87.47;51.67;;;;;;;;;;4897100;29;20029;-69
2021/11/22 06:51:24;;;;;;;85.20;50.33;;;;;;;;;;4897071;29;20095;-65
2021/11/22 06:53:50;;;;;;;86.35;51.10;;;;;;;;;;4897012;29;20449;-68
2021/11/22 06:56:16;;;;;;;87.53;51.58;;;;;;;;;;4896485;29;20084;-71
2021/11/22 06:58:42;;;;;;;83.47;50.88;;;;;;;;;;4896749;29;20035;-74
2021/11/22 07:01:08;;;;;;;89.40;51.97;;;;;;;;;;4896655;29;20041;-76
2021/11/22 07:03:34;;;;;;;84.93;51.95;;;;;;;;;;4895861;29;20029;-66
2021/11/22 07:06:00;;;;;;;88.75;52.53;;;;;;;;;;4896407;29;20098;-73
2021/11/22 07:08:26;;;;;;;99.97;61.33;;;;;;;;;;4900501;29;20381;-66
2021/11/22 07:10:52;;;;;;;96.22;60.47;;;;;;;;;;4915639;29;20031;-69
2021/11/22 07:13:19;;;;;;;98.43;58.42;;;;;;;;;;4915538;29;20026;-73
2021/11/22 07:15:45;;;;;;;96.20;57.00;;;;;;;;;;4914502;29;20369;-64
2021/11/22 07:18:11;;;;;;;88.38;53.08;;;;;;;;;;4914919;29;20032;-65
2021/11/22 07:20:38;;;;;;;99.70;56.88;;;;;;;;;;4915465;29;20024;-65
2021/11/22 07:23:04;;;;;;;94.10;56.58;;;;;;;;;;4915228;29;20036;-65
2021/11/22 07:25:30;;;;;;;95.65;57.33;;;;;;;;;;4915128;29;20028;-68
2021/11/22 07:27:56;;;;;;;98.53;58.92;;;;;;;;;;4915235;29;20031;-68
2021/11/22 07:30:22;;;;;;;100.88;57.53;;;;;;;;;;4914883;29;20032;-74
2021/11/22 07:32:52;;;;;;;97.60;60.03;;;;;;;;;;4901205;29;20116;-70
2021/11/22 07:35:19;;;;;;;101.35;62.53;;;;;;;;;;4892370;29;20082;-73
2021/11/22 07:37:46;;;;;;;105.63;62.42;;;;;;;;;;4878630;29;20036;-72
2021/11/22 07:40:13;;;;;;;107.72;62.42;;;;;;;;;;4894633;29;20099;-70
2021/11/22 07:42:39;;;;;;;101.78;62.10;;;;;;;;;;4895045;29;20049;-67
2021/11/22 07:45:06;;;;;;;216.63;108.47;;;;;;;;;;4894506;29;20048;-67
2021/11/22 07:47:32;;;;;;;156.20;85.07;;;;;;;;;;4894386;29;20183;-68
2021/11/22 07:49:58;;;;;;;126.35;73.03;;;;;;;;;;4894597;29;20028;-70
2021/11/22 07:52:24;;;;;;;128.38;73.45;;;;;;;;;;4894752;29;20029;-66
2021/11/22 07:54:50;;;;;;;122.53;70.82;;;;;;;;;;4894486;29;20053;-67
2021/11/22 07:57:17;;;;;;;110.13;65.75;;;;;;;;;;4895069;29;20116;-65
2021/11/22 07:59:43;;;;;;;115.28;65.82;;;;;;;;;;4893829;29;20032;-69
2021/11/22 08:02:10;;;;;;;107.53;63.15;;;;;;;;;;4895063;29;20087;-67
2021/11/22 08:04:36;;;;;;;103.53;61.15;;;;;;;;;;4894701;29;20460;-67
2021/11/22 08:07:09;;;;;;;99.28;62.40;;;;;;;;;;4894788;29;20025;-66
2021/11/22 08:09:42;;;;;;;111.95;65.47;;;;;;;;;;4894936;29;20439;-70
2021/11/22 08:14:34;;;;;;;90.78;57.92;;;;;;;;;;4895489;29;20063;-69
2021/11/22 08:17:00;;;;;;;91.95;57.55;;;;;;;;;;4894284;29;20563;-70
2021/11/22 08:19:27;;;;;;;99.93;59.00;;;;;;;;;;4894840;29;20061;-67
2021/11/22 08:21:53;;;;;;;98.32;61.60;;;;;;;;;;4894749;29;20040;-69
2021/11/22 08:24:19;;;;;;;101.97;61.17;;;;;;;;;;4877617;29;20044;-70
2021/11/22 08:26:45;;;;;;;103.22;61.22;;;;;;;;;;4892081;29;20088;-67
2021/11/22 08:29:11;;;;;;;99.07;62.75;;;;;;;;;;4894199;29;20233;-70
2021/11/22 08:31:37;;;;;;;102.07;61.28;;;;;;;;;;4896323;29;20020;-68
2021/11/22 08:34:04;;;;;;;104.30;60.95;;;;;;;;;;4898210;29;20033;-65
2021/11/22 08:36:30;;;;;;;101.57;62.75;;;;;;;;;;4898143;29;20052;-68
2021/11/22 08:38:56;;;;;;;106.75;61.28;;;;;;;;;;4898023;29;20029;-67
2021/11/22 08:41:22;;;;;;;99.32;59.60;;;;;;;;;;4898484;29;20493;-68
2021/11/22 08:43:49;;;;;;;100.63;60.38;;;;;;;;;;4883339;29;20392;-68
2021/11/22 08:46:15;;;;;;;93.53;57.65;;;;;;;;;;4897277;29;20040;-68
2021/11/22 08:48:41;;;;;;;100.07;60.88;;;;;;;;;;4897260;29;20051;-71
2021/11/22 08:51:08;;;;;;;100.63;58.08;;;;;;;;;;4881452;29;20116;-70
2021/11/22 08:53:34;;;;;;;92.65;56.00;;;;;;;;;;4898486;29;20116;-70
2021/11/22 08:56:00;;;;;;;92.63;55.80;;;;;;;;;;4898316;29;20025;-68
2021/11/22 08:58:27;;;;;;;89.82;54.75;;;;;;;;;;4898817;29;20033;-69
2021/11/22 09:00:53;;;;;;;92.72;56.92;;;;;;;;;;4898240;29;20043;-69
2021/11/22 09:03:19;;;;;;;94.18;56.83;;;;;;;;;;4898035;29;20096;-69
2021/11/22 09:05:45;;;;;;;95.78;54.28;;;;;;;;;;4880509;29;20088;-68
2021/11/22 09:08:12;;;;;;;89.57;54.53;;;;;;;;;;4897516;29;20056;-69
2021/11/22 09:10:39;;;;;;;92.00;55.20;;;;;;;;;;4898386;29;20485;-64
2021/11/22 09:13:05;;;;;;;90.72;55.45;;;;;;;;;;4898087;29;20041;-66
2021/11/22 09:15:32;;;;;;;82.55;52.25;;;;;;;;;;4896689;29;20039;-65
2021/11/22 09:17:58;;;;;;;86.68;52.40;;;;;;;;;;4897781;29;20060;-67
2021/11/22 09:20:25;;;;;;;93.75;57.05;;;;;;;;;;4897269;29;20067;-67
2021/11/22 09:22:56;;;;;;;87.05;56.25;;;;;;;;;;4898030;29;20465;-66
2021/11/22 09:25:22;;;;;;;89.75;55.92;;;;;;;;;;4898666;29;20032;-65
2021/11/22 09:27:50;;;;;;;89.55;54.70;;;;;;;;;;4898432;29;20025;-66
2021/11/22 09:30:16;;;;;;;85.13;54.63;;;;;;;;;;4898250;29;20028;-65
2021/11/22 09:32:42;;;;;;;90.53;54.78;;;;;;;;;;4897980;29;20393;-65
2021/11/22 09:35:09;;;;;;;90.32;56.75;;;;;;;;;;4898224;29;20037;-66
2021/11/22 09:37:37;;;;;;;87.35;54.38;;;;;;;;;;4896954;29;20055;-66
2021/11/22 09:40:03;;;;;;;92.35;55.22;;;;;;;;;;4897111;29;20035;-65
2021/11/22 09:42:30;;;;;;;91.47;53.65;;;;;;;;;;4896821;29;20139;-64
2021/11/22 09:44:56;;;;;;;86.65;53.28;;;;;;;;;;4897515;29;20036;-69
2021/11/22 09:47:22;;;;;;;90.90;54.20;;;;;;;;;;4896484;29;20500;-65
2021/11/22 09:49:53;;;;;;;84.80;54.80;;;;;;;;;;4898187;29;20031;-68
2021/11/22 09:52:20;;;;;;;87.68;54.38;;;;;;;;;;4896570;29;20020;-63
2021/11/22 09:54:46;;;;;;;90.90;55.10;;;;;;;;;;4896920;29;20029;-68
2021/11/22 09:57:12;;;;;;;92.38;55.78;;;;;;;;;;4896801;29;20048;-67
2021/11/22 09:59:38;;;;;;;89.55;54.90;;;;;;;;;;4896946;29;20037;-63
2021/11/22 10:02:05;;;;;;;90.03;54.58;;;;;;;;;;4895946;29;20044;-65
2021/11/22 10:04:32;;;;;;;101.90;61.30;;;;;;;;;;4896121;29;20035;-66
2021/11/22 10:07:00;;;;;;;90.15;58.65;;;;;;;;;;4895913;29;20025;-66
2021/11/22 10:09:32;;;;;;;96.30;60.25;;;;;;;;;;4896149;29;20033;-65
2021/11/22 10:12:06;;;;;;;107.60;62.08;;;;;;;;;;4896176;29;20044;-65
2021/11/22 10:14:43;;;;;;;99.35;61.67;;;;;;;;;;4895970;29;20025;-65
2021/11/22 10:17:32;;;;;;;99.35;59.58;;;;;;;;;;4893478;29;20060;-64
2021/11/22 10:20:07;;;;;;;106.07;63.78;;;;;;;;;;4896910;29;20390;-67
2021/11/22 10:22:43;;;;;;;99.30;61.40;;;;;;;;;;4879959;29;20056;-65
2021/11/22 10:25:20;;;;;;;96.80;62.50;;;;;;;;;;4897287;29;20032;-68
2021/11/22 10:27:47;;;;;;;102.10;60.00;;;;;;;;;;4880128;29;20476;-65
2021/11/22 10:30:20;;;;;;;92.47;60.15;;;;;;;;;;4896708;29;20025;-65
2021/11/22 10:32:46;;;;;;;96.82;59.05;;;;;;;;;;4897160;29;20029;-65
2021/11/22 10:35:16;;;;;;;93.72;61.90;;;;;;;;;;4897198;29;20395;-65
2021/11/22 10:37:54;;;;;;;90.43;57.72;;;;;;;;;;4897120;29;20491;-64
2021/11/22 10:40:20;;;;;;;102.55;64.38;;;;;;;;;;4896784;29;20088;-66
2021/11/22 10:42:46;;;;;;;103.85;67.63;;;;;;;;;;4895731;29;20437;-65
2021/11/22 10:45:26;;;;;;;117.50;67.80;;;;;;;;;;4896111;29;20036;-65
2021/11/22 10:48:15;;;;;;;119.35;71.28;;;;;;;;;;4894421;29;20037;-67
2021/11/22 10:50:53;;;;;;;108.88;66.22;;;;;;;;;;4896268;29;20024;-67
2021/11/22 10:53:30;;;;;;;109.40;65.55;;;;;;;;;;4896399;29;20060;-65
2021/11/22 10:55:56;;;;;;;102.45;64.60;;;;;;;;;;4897001;29;20031;-67
2021/11/22 10:58:29;;;;;;;100.57;63.63;;;;;;;;;;4896716;29;20028;-67
2021/11/22 11:00:55;;;;;;;120.78;72.78;;;;;;;;;;4896651;29;20037;-66
2021/11/22 11:03:21;;;;;;;115.22;71.55;;;;;;;;;;4896504;29;20072;-64
2021/11/22 11:05:56;;;;;;;135.00;76.40;;;;;;;;;;4879427;29;20123;-66
2021/11/22 11:08:22;;;;;;;113.00;69.22;;;;;;;;;;4879311;29;20115;-66
2021/11/22 11:10:53;;;;;;;116.05;70.55;;;;;;;;;;4879407;29;20028;-68
2021/11/22 11:13:19;;;;;;;113.30;69.40;;;;;;;;;;4896271;29;20493;-66
2021/11/22 11:16:05;;;;;;;106.15;68.38;;;;;;;;;;4895635;29;20076;-67
2021/11/22 11:18:33;;;;;;;105.47;66.95;;;;;;;;;;4896383;29;20051;-67
2021/11/22 11:20:59;;;;;;;113.85;68.28;;;;;;;;;;4896227;29;20091;-65
2021/11/22 11:23:26;;;;;;;108.65;69.82;;;;;;;;;;4896014;29;20035;-66
2021/11/22 11:25:52;;;;;;;105.68;67.75;;;;;;;;;;4893436;29;20028;-67
2021/11/22 11:28:18;;;;;;;107.13;67.07;;;;;;;;;;4895687;29;20341;-66
2021/11/22 11:30:45;;;;;;;105.55;67.25;;;;;;;;;;4895787;29;20040;-66
2021/11/22 11:33:14;;;;;;;103.65;69.20;;;;;;;;;;4896202;29;20410;-67
2021/11/22 11:35:45;;;;;;;111.05;67.80;;;;;;;;;;4896002;29;20029;-70
2021/11/22 11:38:14;;;;;;;110.63;67.85;;;;;;;;;;4895638;29;20040;-70
2021/11/22 11:40:59;;;;;;;116.15;69.40;;;;;;;;;;4895232;29;20037;-70
2021/11/22 11:43:37;;;;;;;110.13;68.95;;;;;;;;;;4895657;29;20373;-70
2021/11/22 11:46:23;;;;;;;101.82;64.45;;;;;;;;;;4895569;29;20033;-69
2021/11/22 11:48:56;;;;;;;99.15;64.95;;;;;;;;;;4800858;29;20055;-69
2021/11/22 11:51:28;;;;;;;101.80;66.30;;;;;;;;;;4801823;29;20492;-69
2021/11/22 11:53:54;;;;;;;;;;;;;;;;;;4801629;29;20042;-64
2021/11/22 11:56:20;;;;;;;101.78;63.45;;;;;;;;;;4801475;29;20362;-68
2021/11/22 11:58:46;;;;;;;105.18;65.82;;;;;;;;;;4800999;29;20042;-67
2021/11/22 12:01:16;;;;;;;100.47;62.40;;;;;;;;;;4812506;29;20077;-67
2021/11/22 12:04:10;;;;;;;92.68;56.92;;;;;;;;;;4819428;29;20113;-68
2021/11/22 12:06:55;;;;;;;82.90;53.72;;;;;;;;;;4816696;29;20045;-66
2021/11/22 12:09:27;;;;;;;84.45;52.40;;;;;;;;;;4819696;29;20030;-67
2021/11/22 12:11:53;;;;;;;87.97;54.47;;;;;;;;;;4819128;29;20039;-67
2021/11/22 12:14:51;;;;;;;83.15;54.67;;;;;;;;;;4819589;29;20034;-68
2021/11/22 12:17:35;;;;;;;87.10;54.65;;;;;;;;;;4764735;30;20138;-68
2021/11/22 12:20:06;;;;;;;85.75;57.50;;;;;;;;;;4765122;30;20126;-67
2021/11/22 12:22:39;;;;;;;91.45;56.75;;;;;;;;;;4765175;30;20082;-67
2021/11/22 12:25:07;;;;;;;86.07;56.47;;;;;;;;;;4779455;29;20128;-64
2021/11/22 12:27:34;;;;;;;92.20;59.25;;;;;;;;;;4855907;29;20524;-66
2021/11/22 12:30:03;;;;;;;91.13;58.60;;;;;;;;;;4856050;29;20070;-68
2021/11/22 12:32:35;;;;;;;92.50;58.58;;;;;;;;;;4855933;29;20160;-68
2021/11/22 12:35:03;;;;;;;91.47;59.78;;;;;;;;;;4855374;29;20036;-65
2021/11/22 12:37:32;;;;;;;99.18;61.67;;;;;;;;;;4855610;29;20025;-66
2021/11/22 12:40:15;;;;;;;151.73;84.55;;;;;;;;;;4855794;29;20042;-67
2021/11/22 12:42:45;;;;;;;109.53;68.53;;;;;;;;;;4855829;29;20128;-64
2021/11/22 12:45:11;;;;;;;104.20;66.65;;;;;;;;;;4855450;29;20080;-68
2021/11/22 12:47:38;;;;;;;106.40;69.10;;;;;;;;;;4854982;29;20183;-66
2021/11/22 12:50:08;;;;;;;100.35;66.53;;;;;;;;;;4856056;29;20045;-65
2021/11/22 12:52:36;;;;;;;102.45;65.68;;;;;;;;;;4877515;29;20127;-65
2021/11/22 12:55:08;;;;;;;106.88;70.07;;;;;;;;;;4914676;29;20413;-65
2021/11/22 12:57:39;;;;;;;106.50;71.32;;;;;;;;;;4914145;29;20032;-65
2021/11/22 13:00:31;;;;;;;113.82;71.22;;;;;;;;;;4914187;29;20036;-67
2021/11/22 13:03:01;;;;;;;111.93;72.10;;;;;;;;;;4913357;29;20086;-67
2021/11/22 13:05:47;;;;;;;113.78;72.05;;;;;;;;;;4913763;29;20042;-67
2021/11/22 13:08:19;;;;;;;113.82;70.25;;;;;;;;;;4913679;29;20028;-68
2021/11/22 13:10:55;;;;;;;110.70;71.63;;;;;;;;;;4913995;29;20048;-68
2021/11/22 13:15:59;;;;;;;121.07;73.07;;;;;;;;;;4913648;29;20028;-68
2021/11/22 13:18:34;;;;;;;113.13;74.30;;;;;;;;;;4916650;29;20056;-68
2021/11/22 13:21:02;;;;;;;117.88;73.05;;;;;;;;;;4916896;29;20465;-67
2021/11/22 13:23:30;;;;;;;117.93;73.60;;;;;;;;;;4917336;29;20023;-66
2021/11/22 13:25:57;;;;;;;114.97;75.47;;;;;;;;;;4917109;29;20040;-66
2021/11/22 13:28:25;;;;;;;120.25;76.32;;;;;;;;;;4916600;29;20028;-67
2021/11/22 13:30:52;;;;;;;122.60;80.18;;;;;;;;;;4916782;29;20032;-67
2021/11/22 13:33:19;;;;;;;140.63;85.05;;;;;;;;;;4916411;29;20028;-67
2021/11/22 13:35:47;;;;;;;131.77;83.00;;;;;;;;;;4917156;29;20155;-65
2021/11/22 13:38:13;;;;;;;155.48;91.63;;;;;;;;;;4916356;29;20441;-64
2021/11/22 13:40:40;;;;;;;128.48;82.35;;;;;;;;;;4916596;29;20040;-66
2021/11/22 13:43:07;;;;;;;124.18;77.55;;;;;;;;;;4916704;29;20028;-66
2021/11/22 13:45:33;;;;;;;119.38;73.25;;;;;;;;;;4916703;29;20114;-66
2021/11/22 13:48:00;;;;;;;120.35;79.20;;;;;;;;;;4916179;29;20032;-65
2021/11/22 13:50:27;;;;;;;118.05;75.35;;;;;;;;;;4916072;29;20103;-64
2021/11/22 13:52:54;;;;;;;123.90;79.65;;;;;;;;;;4916085;29;20103;-64
2021/11/22 13:55:20;;;;;;;128.10;80.18;;;;;;;;;;4916746;29;20100;-64
2021/11/22 13:57:46;;;;;;;126.72;79.10;;;;;;;;;;4916420;29;20060;-66
2021/11/22 14:00:15;;;;;;;116.10;74.75;;;;;;;;;;4916819;29;20115;-62
2021/11/22 14:02:41;;;;;;;111.72;76.00;;;;;;;;;;4916123;29;20309;-64
2021/11/22 14:05:07;;;;;;;120.03;75.57;;;;;;;;;;4901952;29;20526;-66
2021/11/22 14:07:43;;;;;;;121.93;79.65;;;;;;;;;;4879555;29;20544;-62
2021/11/22 14:10:10;;;;;;;130.13;82.00;;;;;;;;;;4877628;29;20119;-62
2021/11/22 14:12:40;;;;;;;120.55;77.82;;;;;;;;;;4895911;29;20073;-62
2021/11/22 14:15:21;;;;;;;122.07;75.63;;;;;;;;;;4897227;29;20424;-63
2021/11/22 14:17:48;;;;;;;126.68;78.15;;;;;;;;;;4896750;29;20052;-63
2021/11/22 14:20:15;;;;;;;116.65;72.25;;;;;;;;;;4897704;29;20121;-63
2021/11/22 14:22:43;;;;;;;111.45;71.63;;;;;;;;;;4896871;29;20107;-64